sensor_id;sensor_type;location;lat;lon;timestamp;P1;durP1;ratioP1;P2;durP2;ratioP2
20159;SDS011;50187;50.492;12.134;2023-04-08T00:00:56;2.47;;;2.33;;
20159;SDS011;50187;50.492;12.134;2023-04-08T00:03:41;2.53;;;2.33;;
20159;SDS011;50187;50.492;12.134;2023-04-08T00:06:26;2.40;;;2.20;;
20159;SDS011;50187;50.492;12.134;2023-04-08T00:09:12;2.20;;;2.10;;
20159;SDS011;50187;50.492;12.134;2023-04-08T00:11:56;2.87;;;2.67;;
20159;SDS011;50187;50.492;12.134;2023-04-08T00:14:42;2.53;;;2.33;;
20159;SDS011;50187;50.492;12.134;2023-04-08T00:17:27;2.67;;;2.47;;
20159;SDS011;50187;50.492;12.134;2023-04-08T00:20:12;2.80;;;2.60;;
20159;SDS011;50187;50.492;12.134;2023-04-08T00:22:57;2.50;;;2.30;;
20159;SDS011;50187;50.492;12.134;2023-04-08T00:25:42;2.67;;;2.47;;
20159;SDS011;50187;50.492;12.134;2023-04-08T00:28:28;2.43;;;2.30;;
20159;SDS011;50187;50.492;12.134;2023-04-08T00:31:12;2.87;;;2.67;;
20159;SDS011;50187;50.492;12.134;2023-04-08T00:33:58;2.27;;;2.17;;
20159;SDS011;50187;50.492;12.134;2023-04-08T00:36:43;2.23;;;2.13;;
20159;SDS011;50187;50.492;12.134;2023-04-08T00:39:30;2.23;;;2.10;;
20159;SDS011;50187;50.492;12.134;2023-04-08T00:42:15;2.67;;;2.47;;
20159;SDS011;50187;50.492;12.134;2023-04-08T00:45:01;2.20;;;2.10;;
20159;SDS011;50187;50.492;12.134;2023-04-08T00:47:46;2.47;;;2.30;;
20159;SDS011;50187;50.492;12.134;2023-04-08T00:50:36;2.47;;;2.27;;
20159;SDS011;50187;50.492;12.134;2023-04-08T00:53:22;2.30;;;2.20;;
20159;SDS011;50187;50.492;12.134;2023-04-08T00:56:10;2.50;;;2.30;;
20159;SDS011;50187;50.492;12.134;2023-04-08T00:58:55;2.37;;;2.20;;
20159;SDS011;50187;50.492;12.134;2023-04-08T01:07:48;2.33;;;2.23;;
20159;SDS011;50187;50.492;12.134;2023-04-08T01:10:35;2.80;;;2.60;;
20159;SDS011;50187;50.492;12.134;2023-04-08T01:13:22;2.63;;;2.43;;
20159;SDS011;50187;50.492;12.134;2023-04-08T01:16:12;2.33;;;2.20;;
20159;SDS011;50187;50.492;12.134;2023-04-08T01:18:59;2.40;;;2.20;;
20159;SDS011;50187;50.492;12.134;2023-04-08T01:21:45;2.40;;;2.27;;
20159;SDS011;50187;50.492;12.134;2023-04-08T01:24:32;2.23;;;2.13;;
20159;SDS011;50187;50.492;12.134;2023-04-08T01:27:22;2.70;;;2.50;;
20159;SDS011;50187;50.492;12.134;2023-04-08T01:30:08;2.40;;;2.30;;
20159;SDS011;50187;50.492;12.134;2023-04-08T01:32:55;2.33;;;2.23;;
20159;SDS011;50187;50.492;12.134;2023-04-08T01:35:41;2.57;;;2.37;;
20159;SDS011;50187;50.492;12.134;2023-04-08T01:38:27;2.40;;;2.20;;
20159;SDS011;50187;50.492;12.134;2023-04-08T01:41:16;2.50;;;2.30;;
20159;SDS011;50187;50.492;12.134;2023-04-08T01:44:02;2.57;;;2.40;;
20159;SDS011;50187;50.492;12.134;2023-04-08T01:46:48;2.10;;;2.00;;
20159;SDS011;50187;50.492;12.134;2023-04-08T01:49:34;2.20;;;2.10;;
20159;SDS011;50187;50.492;12.134;2023-04-08T01:52:21;2.40;;;2.30;;
20159;SDS011;50187;50.492;12.134;2023-04-08T01:55:07;2.20;;;2.10;;
20159;SDS011;50187;50.492;12.134;2023-04-08T01:57:53;2.17;;;2.07;;
20159;SDS011;50187;50.492;12.134;2023-04-08T02:00:42;1.97;;;1.87;;
20159;SDS011;50187;50.492;12.134;2023-04-08T02:03:31;2.07;;;1.90;;
20159;SDS011;50187;50.492;12.134;2023-04-08T02:06:19;2.70;;;2.50;;
20159;SDS011;50187;50.492;12.134;2023-04-08T02:09:03;2.40;;;2.20;;
20159;SDS011;50187;50.492;12.134;2023-04-08T02:11:49;2.70;;;2.50;;
20159;SDS011;50187;50.492;12.134;2023-04-08T02:14:35;2.57;;;2.37;;
20159;SDS011;50187;50.492;12.134;2023-04-08T02:17:23;2.17;;;2.07;;
20159;SDS011;50187;50.492;12.134;2023-04-08T02:20:16;2.17;;;2.07;;
20159;SDS011;50187;50.492;12.134;2023-04-08T02:23:19;2.13;;;2.00;;
20159;SDS011;50187;50.492;12.134;2023-04-08T02:26:14;2.00;;;1.90;;
20159;SDS011;50187;50.492;12.134;2023-04-08T02:29:02;2.43;;;2.23;;
20159;SDS011;50187;50.492;12.134;2023-04-08T02:31:48;2.27;;;2.17;;
20159;SDS011;50187;50.492;12.134;2023-04-08T02:34:35;2.37;;;2.17;;
20159;SDS011;50187;50.492;12.134;2023-04-08T02:37:23;2.50;;;2.30;;
20159;SDS011;50187;50.492;12.134;2023-04-08T02:40:24;2.20;;;2.10;;
20159;SDS011;50187;50.492;12.134;2023-04-08T02:43:13;2.30;;;2.20;;
20159;SDS011;50187;50.492;12.134;2023-04-08T02:45:59;2.00;;;1.90;;
20159;SDS011;50187;50.492;12.134;2023-04-08T02:48:47;2.30;;;2.13;;
20159;SDS011;50187;50.492;12.134;2023-04-08T02:51:33;2.20;;;2.10;;
20159;SDS011;50187;50.492;12.134;2023-04-08T02:54:18;2.40;;;2.00;;
20159;SDS011;50187;50.492;12.134;2023-04-08T02:57:05;2.57;;;2.37;;
20159;SDS011;50187;50.492;12.134;2023-04-08T02:59:50;1.93;;;1.83;;
20159;SDS011;50187;50.492;12.134;2023-04-08T03:02:35;2.10;;;2.00;;
20159;SDS011;50187;50.492;12.134;2023-04-08T03:05:20;2.00;;;1.90;;
20159;SDS011;50187;50.492;12.134;2023-04-08T03:08:05;1.90;;;1.80;;
20159;SDS011;50187;50.492;12.134;2023-04-08T03:10:50;2.47;;;2.27;;
20159;SDS011;50187;50.492;12.134;2023-04-08T03:13:36;2.17;;;2.00;;
20159;SDS011;50187;50.492;12.134;2023-04-08T03:16:21;2.10;;;2.00;;
20159;SDS011;50187;50.492;12.134;2023-04-08T03:19:06;1.90;;;1.80;;
20159;SDS011;50187;50.492;12.134;2023-04-08T03:21:51;1.93;;;1.83;;
20159;SDS011;50187;50.492;12.134;2023-04-08T03:24:36;2.27;;;2.10;;
20159;SDS011;50187;50.492;12.134;2023-04-08T03:27:21;2.10;;;2.00;;
20159;SDS011;50187;50.492;12.134;2023-04-08T03:30:06;1.87;;;1.77;;
20159;SDS011;50187;50.492;12.134;2023-04-08T03:32:52;2.10;;;1.90;;
20159;SDS011;50187;50.492;12.134;2023-04-08T03:35:38;1.87;;;1.77;;
20159;SDS011;50187;50.492;12.134;2023-04-08T03:38:23;2.77;;;1.83;;
20159;SDS011;50187;50.492;12.134;2023-04-08T03:41:08;2.20;;;1.80;;
20159;SDS011;50187;50.492;12.134;2023-04-08T03:43:53;2.20;;;2.10;;
20159;SDS011;50187;50.492;12.134;2023-04-08T03:46:39;1.90;;;1.80;;
20159;SDS011;50187;50.492;12.134;2023-04-08T03:49:24;2.07;;;1.90;;
20159;SDS011;50187;50.492;12.134;2023-04-08T03:52:09;1.97;;;1.87;;
20159;SDS011;50187;50.492;12.134;2023-04-08T03:54:55;1.70;;;1.60;;
20159;SDS011;50187;50.492;12.134;2023-04-08T03:57:40;1.80;;;1.70;;
20159;SDS011;50187;50.492;12.134;2023-04-08T04:00:25;1.80;;;1.70;;
20159;SDS011;50187;50.492;12.134;2023-04-08T04:03:11;1.60;;;1.50;;
20159;SDS011;50187;50.492;12.134;2023-04-08T04:05:57;1.80;;;1.70;;
20159;SDS011;50187;50.492;12.134;2023-04-08T04:08:42;1.60;;;1.50;;
20159;SDS011;50187;50.492;12.134;2023-04-08T04:11:28;1.70;;;1.60;;
20159;SDS011;50187;50.492;12.134;2023-04-08T04:14:13;1.43;;;1.33;;
20159;SDS011;50187;50.492;12.134;2023-04-08T04:16:58;2.00;;;1.70;;
20159;SDS011;50187;50.492;12.134;2023-04-08T04:19:43;1.90;;;1.80;;
20159;SDS011;50187;50.492;12.134;2023-04-08T04:22:28;1.70;;;1.60;;
20159;SDS011;50187;50.492;12.134;2023-04-08T04:25:13;1.77;;;1.67;;
20159;SDS011;50187;50.492;12.134;2023-04-08T04:27:58;1.60;;;1.50;;
20159;SDS011;50187;50.492;12.134;2023-04-08T04:30:43;1.70;;;1.60;;
20159;SDS011;50187;50.492;12.134;2023-04-08T04:33:30;1.67;;;1.57;;
20159;SDS011;50187;50.492;12.134;2023-04-08T04:36:15;1.60;;;1.50;;
20159;SDS011;50187;50.492;12.134;2023-04-08T04:39:00;1.30;;;1.30;;
20159;SDS011;50187;50.492;12.134;2023-04-08T04:41:45;2.10;;;1.63;;
20159;SDS011;50187;50.492;12.134;2023-04-08T04:44:32;1.60;;;1.50;;
20159;SDS011;50187;50.492;12.134;2023-04-08T04:47:18;1.80;;;1.70;;
20159;SDS011;50187;50.492;12.134;2023-04-08T04:50:04;1.60;;;1.50;;
20159;SDS011;50187;50.492;12.134;2023-04-08T04:52:49;1.70;;;1.60;;
20159;SDS011;50187;50.492;12.134;2023-04-08T04:55:34;1.63;;;1.53;;
20159;SDS011;50187;50.492;12.134;2023-04-08T04:58:23;1.60;;;1.50;;
20159;SDS011;50187;50.492;12.134;2023-04-08T05:01:08;1.40;;;1.33;;
20159;SDS011;50187;50.492;12.134;2023-04-08T05:03:54;1.40;;;1.30;;
20159;SDS011;50187;50.492;12.134;2023-04-08T05:06:39;1.40;;;1.30;;
20159;SDS011;50187;50.492;12.134;2023-04-08T05:09:25;1.50;;;1.40;;
20159;SDS011;50187;50.492;12.134;2023-04-08T05:12:10;1.60;;;1.50;;
20159;SDS011;50187;50.492;12.134;2023-04-08T05:14:59;1.83;;;1.30;;
20159;SDS011;50187;50.492;12.134;2023-04-08T05:17:44;1.37;;;1.37;;
20159;SDS011;50187;50.492;12.134;2023-04-08T05:20:30;1.83;;;1.73;;
20159;SDS011;50187;50.492;12.134;2023-04-08T05:23:15;1.30;;;1.30;;
20159;SDS011;50187;50.492;12.134;2023-04-08T05:26:00;1.43;;;1.33;;
20159;SDS011;50187;50.492;12.134;2023-04-08T05:28:46;1.53;;;1.43;;
20159;SDS011;50187;50.492;12.134;2023-04-08T05:31:31;1.40;;;1.40;;
20159;SDS011;50187;50.492;12.134;2023-04-08T05:34:17;1.47;;;1.37;;
20159;SDS011;50187;50.492;12.134;2023-04-08T05:37:06;1.77;;;1.67;;
20159;SDS011;50187;50.492;12.134;2023-04-08T05:39:52;1.27;;;1.20;;
20159;SDS011;50187;50.492;12.134;2023-04-08T05:42:37;1.70;;;1.60;;
20159;SDS011;50187;50.492;12.134;2023-04-08T05:45:22;1.50;;;1.40;;
20159;SDS011;50187;50.492;12.134;2023-04-08T05:48:08;1.13;;;1.13;;
20159;SDS011;50187;50.492;12.134;2023-04-08T05:50:53;1.23;;;1.23;;
20159;SDS011;50187;50.492;12.134;2023-04-08T05:53:39;1.57;;;1.47;;
20159;SDS011;50187;50.492;12.134;2023-04-08T05:56:24;1.27;;;1.23;;
20159;SDS011;50187;50.492;12.134;2023-04-08T05:59:09;1.63;;;1.30;;
20159;SDS011;50187;50.492;12.134;2023-04-08T06:01:55;1.00;;;1.00;;
20159;SDS011;50187;50.492;12.134;2023-04-08T06:04:40;1.10;;;1.10;;
20159;SDS011;50187;50.492;12.134;2023-04-08T06:07:26;1.30;;;1.30;;
20159;SDS011;50187;50.492;12.134;2023-04-08T06:10:11;1.53;;;1.43;;
20159;SDS011;50187;50.492;12.134;2023-04-08T06:12:56;1.20;;;1.20;;
20159;SDS011;50187;50.492;12.134;2023-04-08T06:15:42;1.07;;;1.07;;
20159;SDS011;50187;50.492;12.134;2023-04-08T06:18:28;1.27;;;1.27;;
20159;SDS011;50187;50.492;12.134;2023-04-08T06:21:13;1.23;;;1.13;;
20159;SDS011;50187;50.492;12.134;2023-04-08T06:23:58;1.33;;;1.30;;
20159;SDS011;50187;50.492;12.134;2023-04-08T06:26:43;1.23;;;1.23;;
20159;SDS011;50187;50.492;12.134;2023-04-08T06:29:29;1.20;;;1.20;;
20159;SDS011;50187;50.492;12.134;2023-04-08T06:32:15;1.37;;;1.27;;
20159;SDS011;50187;50.492;12.134;2023-04-08T06:35:00;1.00;;;1.00;;
20159;SDS011;50187;50.492;12.134;2023-04-08T06:37:46;1.10;;;1.10;;
20159;SDS011;50187;50.492;12.134;2023-04-08T06:40:31;1.10;;;1.10;;
20159;SDS011;50187;50.492;12.134;2023-04-08T06:43:17;0.93;;;0.93;;
20159;SDS011;50187;50.492;12.134;2023-04-08T06:46:02;1.30;;;1.27;;
20159;SDS011;50187;50.492;12.134;2023-04-08T06:48:47;1.33;;;1.23;;
20159;SDS011;50187;50.492;12.134;2023-04-08T06:51:33;1.20;;;1.20;;
20159;SDS011;50187;50.492;12.134;2023-04-08T06:54:19;1.00;;;1.00;;
20159;SDS011;50187;50.492;12.134;2023-04-08T06:57:05;1.27;;;1.27;;
20159;SDS011;50187;50.492;12.134;2023-04-08T06:59:51;0.70;;;0.70;;
20159;SDS011;50187;50.492;12.134;2023-04-08T07:02:37;1.70;;;1.00;;
20159;SDS011;50187;50.492;12.134;2023-04-08T07:05:22;0.80;;;0.80;;
20159;SDS011;50187;50.492;12.134;2023-04-08T07:08:08;1.10;;;1.10;;
20159;SDS011;50187;50.492;12.134;2023-04-08T07:10:53;1.07;;;1.07;;
20159;SDS011;50187;50.492;12.134;2023-04-08T07:13:39;1.10;;;1.10;;
20159;SDS011;50187;50.492;12.134;2023-04-08T07:16:24;1.00;;;1.00;;
20159;SDS011;50187;50.492;12.134;2023-04-08T07:19:10;1.00;;;1.00;;
20159;SDS011;50187;50.492;12.134;2023-04-08T07:21:55;0.70;;;0.70;;
20159;SDS011;50187;50.492;12.134;2023-04-08T07:24:41;1.10;;;1.10;;
20159;SDS011;50187;50.492;12.134;2023-04-08T07:27:29;0.93;;;0.93;;
20159;SDS011;50187;50.492;12.134;2023-04-08T07:30:16;0.90;;;0.90;;
20159;SDS011;50187;50.492;12.134;2023-04-08T07:33:01;1.10;;;1.10;;
20159;SDS011;50187;50.492;12.134;2023-04-08T07:35:46;0.93;;;0.93;;
20159;SDS011;50187;50.492;12.134;2023-04-08T07:38:32;0.90;;;0.90;;
20159;SDS011;50187;50.492;12.134;2023-04-08T07:41:17;1.13;;;1.13;;
20159;SDS011;50187;50.492;12.134;2023-04-08T07:44:03;1.00;;;1.00;;
20159;SDS011;50187;50.492;12.134;2023-04-08T07:46:48;1.20;;;1.10;;
20159;SDS011;50187;50.492;12.134;2023-04-08T07:49:35;1.47;;;1.03;;
20159;SDS011;50187;50.492;12.134;2023-04-08T07:52:21;1.00;;;1.00;;
20159;SDS011;50187;50.492;12.134;2023-04-08T07:55:06;0.70;;;0.70;;
20159;SDS011;50187;50.492;12.134;2023-04-08T07:57:52;0.83;;;0.83;;
20159;SDS011;50187;50.492;12.134;2023-04-08T08:00:38;0.93;;;0.93;;
20159;SDS011;50187;50.492;12.134;2023-04-08T08:03:25;0.80;;;0.80;;
20159;SDS011;50187;50.492;12.134;2023-04-08T08:06:14;1.03;;;1.03;;
20159;SDS011;50187;50.492;12.134;2023-04-08T08:08:59;0.60;;;0.60;;
20159;SDS011;50187;50.492;12.134;2023-04-08T08:11:44;0.80;;;0.80;;
20159;SDS011;50187;50.492;12.134;2023-04-08T08:14:30;0.87;;;0.87;;
20159;SDS011;50187;50.492;12.134;2023-04-08T08:17:15;0.83;;;0.83;;
20159;SDS011;50187;50.492;12.134;2023-04-08T08:20:02;0.70;;;0.70;;
20159;SDS011;50187;50.492;12.134;2023-04-08T08:22:48;0.83;;;0.83;;
20159;SDS011;50187;50.492;12.134;2023-04-08T08:25:41;0.90;;;0.90;;
20159;SDS011;50187;50.492;12.134;2023-04-08T08:28:27;1.03;;;1.00;;
20159;SDS011;50187;50.492;12.134;2023-04-08T08:31:13;0.70;;;0.70;;
20159;SDS011;50187;50.492;12.134;2023-04-08T08:33:58;0.73;;;0.73;;
20159;SDS011;50187;50.492;12.134;2023-04-08T08:36:43;0.83;;;0.83;;
20159;SDS011;50187;50.492;12.134;2023-04-08T08:39:28;0.60;;;0.60;;
20159;SDS011;50187;50.492;12.134;2023-04-08T08:42:20;0.83;;;0.83;;
20159;SDS011;50187;50.492;12.134;2023-04-08T08:45:07;0.80;;;0.80;;
20159;SDS011;50187;50.492;12.134;2023-04-08T08:47:53;0.80;;;0.80;;
20159;SDS011;50187;50.492;12.134;2023-04-08T08:50:38;0.63;;;0.63;;
20159;SDS011;50187;50.492;12.134;2023-04-08T08:53:27;0.80;;;0.80;;
20159;SDS011;50187;50.492;12.134;2023-04-08T08:56:17;0.70;;;0.70;;
20159;SDS011;50187;50.492;12.134;2023-04-08T08:59:02;0.70;;;0.70;;
20159;SDS011;50187;50.492;12.134;2023-04-08T09:01:48;1.10;;;1.00;;
20159;SDS011;50187;50.492;12.134;2023-04-08T09:04:36;0.80;;;0.80;;
20159;SDS011;50187;50.492;12.134;2023-04-08T09:07:23;0.80;;;0.80;;
20159;SDS011;50187;50.492;12.134;2023-04-08T09:10:12;0.77;;;0.77;;
20159;SDS011;50187;50.492;12.134;2023-04-08T09:12:57;0.90;;;0.90;;
20159;SDS011;50187;50.492;12.134;2023-04-08T09:16:04;0.90;;;0.90;;
20159;SDS011;50187;50.492;12.134;2023-04-08T09:18:53;0.70;;;0.70;;
20159;SDS011;50187;50.492;12.134;2023-04-08T09:21:39;0.90;;;0.90;;
20159;SDS011;50187;50.492;12.134;2023-04-08T09:24:34;0.80;;;0.80;;
20159;SDS011;50187;50.492;12.134;2023-04-08T09:27:33;0.83;;;0.83;;
20159;SDS011;50187;50.492;12.134;2023-04-08T09:30:21;0.67;;;0.67;;
20159;SDS011;50187;50.492;12.134;2023-04-08T09:33:07;0.80;;;0.80;;
20159;SDS011;50187;50.492;12.134;2023-04-08T09:35:52;0.90;;;0.90;;
20159;SDS011;50187;50.492;12.134;2023-04-08T09:38:38;1.50;;;0.80;;
20159;SDS011;50187;50.492;12.134;2023-04-08T09:41:23;0.90;;;0.90;;
20159;SDS011;50187;50.492;12.134;2023-04-08T09:44:12;0.90;;;0.90;;
20159;SDS011;50187;50.492;12.134;2023-04-08T09:47:09;0.53;;;0.53;;
20159;SDS011;50187;50.492;12.134;2023-04-08T09:50:01;0.87;;;0.87;;
20159;SDS011;50187;50.492;12.134;2023-04-08T09:52:52;0.70;;;0.70;;
20159;SDS011;50187;50.492;12.134;2023-04-08T09:55:41;1.57;;;1.27;;
20159;SDS011;50187;50.492;12.134;2023-04-08T09:58:28;2.20;;;1.10;;
20159;SDS011;50187;50.492;12.134;2023-04-08T10:01:25;1.00;;;0.90;;
20159;SDS011;50187;50.492;12.134;2023-04-08T10:04:17;3.57;;;1.10;;
20159;SDS011;50187;50.492;12.134;2023-04-08T10:07:05;1.97;;;1.60;;
20159;SDS011;50187;50.492;12.134;2023-04-08T10:09:52;1.67;;;1.57;;
20159;SDS011;50187;50.492;12.134;2023-04-08T10:12:37;2.73;;;2.07;;
20159;SDS011;50187;50.492;12.134;2023-04-08T10:15:27;5.13;;;1.77;;
20159;SDS011;50187;50.492;12.134;2023-04-08T10:21:03;2.30;;;2.10;;
20159;SDS011;50187;50.492;12.134;2023-04-08T10:23:56;2.17;;;1.90;;
20159;SDS011;50187;50.492;12.134;2023-04-08T10:26:44;4.57;;;2.20;;
20159;SDS011;50187;50.492;12.134;2023-04-08T10:29:29;3.33;;;2.17;;
20159;SDS011;50187;50.492;12.134;2023-04-08T10:32:27;2.40;;;2.20;;
20159;SDS011;50187;50.492;12.134;2023-04-08T10:35:13;2.93;;;2.07;;
20159;SDS011;50187;50.492;12.134;2023-04-08T10:37:59;3.60;;;2.17;;
20159;SDS011;50187;50.492;12.134;2023-04-08T10:40:46;6.10;;;2.50;;
20159;SDS011;50187;50.492;12.134;2023-04-08T10:43:33;2.20;;;2.00;;
20159;SDS011;50187;50.492;12.134;2023-04-08T10:46:19;1.80;;;1.70;;
20159;SDS011;50187;50.492;12.134;2023-04-08T10:49:05;3.03;;;2.40;;
20159;SDS011;50187;50.492;12.134;2023-04-08T10:51:53;4.07;;;2.60;;
20159;SDS011;50187;50.492;12.134;2023-04-08T10:54:38;3.40;;;2.40;;
20159;SDS011;50187;50.492;12.134;2023-04-08T10:57:32;4.13;;;2.27;;
20159;SDS011;50187;50.492;12.134;2023-04-08T11:00:18;4.50;;;2.13;;
20159;SDS011;50187;50.492;12.134;2023-04-08T11:03:15;3.93;;;2.30;;
20159;SDS011;50187;50.492;12.134;2023-04-08T11:06:01;6.87;;;2.73;;
20159;SDS011;50187;50.492;12.134;2023-04-08T11:08:47;3.57;;;2.60;;
20159;SDS011;50187;50.492;12.134;2023-04-08T11:11:33;5.07;;;2.63;;
20159;SDS011;50187;50.492;12.134;2023-04-08T11:14:18;4.20;;;2.80;;
20159;SDS011;50187;50.492;12.134;2023-04-08T11:17:06;4.53;;;3.33;;
20159;SDS011;50187;50.492;12.134;2023-04-08T11:19:52;4.33;;;3.40;;
20159;SDS011;50187;50.492;12.134;2023-04-08T11:22:38;4.63;;;3.43;;
20159;SDS011;50187;50.492;12.134;2023-04-08T11:25:24;8.03;;;4.20;;
20159;SDS011;50187;50.492;12.134;2023-04-08T11:28:10;8.13;;;3.77;;
20159;SDS011;50187;50.492;12.134;2023-04-08T11:30:56;9.57;;;4.50;;
20159;SDS011;50187;50.492;12.134;2023-04-08T11:33:47;4.73;;;3.80;;
20159;SDS011;50187;50.492;12.134;2023-04-08T11:36:34;8.50;;;4.53;;
20159;SDS011;50187;50.492;12.134;2023-04-08T11:39:23;6.53;;;4.67;;
20159;SDS011;50187;50.492;12.134;2023-04-08T11:42:08;10.87;;;5.17;;
20159;SDS011;50187;50.492;12.134;2023-04-08T11:45:10;6.30;;;4.70;;
20159;SDS011;50187;50.492;12.134;2023-04-08T11:47:57;6.20;;;5.60;;
20159;SDS011;50187;50.492;12.134;2023-04-08T11:50:43;8.93;;;5.53;;
20159;SDS011;50187;50.492;12.134;2023-04-08T11:53:29;7.10;;;5.03;;
20159;SDS011;50187;50.492;12.134;2023-04-08T11:56:18;6.90;;;4.53;;
20159;SDS011;50187;50.492;12.134;2023-04-08T11:59:06;7.67;;;4.10;;
20159;SDS011;50187;50.492;12.134;2023-04-08T12:01:51;7.67;;;4.60;;
20159;SDS011;50187;50.492;12.134;2023-04-08T12:04:37;6.20;;;3.97;;
20159;SDS011;50187;50.492;12.134;2023-04-08T12:07:23;4.63;;;3.80;;
20159;SDS011;50187;50.492;12.134;2023-04-08T12:10:08;4.17;;;3.60;;
20159;SDS011;50187;50.492;12.134;2023-04-08T12:12:54;4.43;;;3.60;;
20159;SDS011;50187;50.492;12.134;2023-04-08T12:15:40;3.63;;;3.33;;
20159;SDS011;50187;50.492;12.134;2023-04-08T12:18:26;4.73;;;3.50;;
20159;SDS011;50187;50.492;12.134;2023-04-08T12:21:11;3.43;;;3.10;;
20159;SDS011;50187;50.492;12.134;2023-04-08T12:23:57;5.93;;;3.93;;
20159;SDS011;50187;50.492;12.134;2023-04-08T12:26:42;3.50;;;3.07;;
20159;SDS011;50187;50.492;12.134;2023-04-08T12:29:27;7.30;;;3.17;;
20159;SDS011;50187;50.492;12.134;2023-04-08T12:32:13;3.80;;;3.30;;
20159;SDS011;50187;50.492;12.134;2023-04-08T12:34:58;3.60;;;3.30;;
20159;SDS011;50187;50.492;12.134;2023-04-08T12:37:44;3.50;;;3.20;;
20159;SDS011;50187;50.492;12.134;2023-04-08T12:40:29;5.33;;;3.63;;
20159;SDS011;50187;50.492;12.134;2023-04-08T12:43:15;2.93;;;2.73;;
20159;SDS011;50187;50.492;12.134;2023-04-08T12:46:00;3.20;;;2.90;;
20159;SDS011;50187;50.492;12.134;2023-04-08T12:48:46;3.13;;;2.83;;
20159;SDS011;50187;50.492;12.134;2023-04-08T12:51:32;3.10;;;2.50;;
20159;SDS011;50187;50.492;12.134;2023-04-08T12:54:19;3.20;;;2.90;;
20159;SDS011;50187;50.492;12.134;2023-04-08T12:57:05;3.17;;;2.97;;
20159;SDS011;50187;50.492;12.134;2023-04-08T12:59:50;3.10;;;2.83;;
20159;SDS011;50187;50.492;12.134;2023-04-08T13:02:35;2.93;;;2.67;;
20159;SDS011;50187;50.492;12.134;2023-04-08T13:05:20;3.77;;;2.70;;
20159;SDS011;50187;50.492;12.134;2023-04-08T13:08:26;2.93;;;2.73;;
20159;SDS011;50187;50.492;12.134;2023-04-08T13:11:12;3.10;;;2.80;;
20159;SDS011;50187;50.492;12.134;2023-04-08T13:13:57;2.67;;;2.47;;
20159;SDS011;50187;50.492;12.134;2023-04-08T13:16:42;2.80;;;2.60;;
20159;SDS011;50187;50.492;12.134;2023-04-08T13:19:27;3.10;;;2.90;;
20159;SDS011;50187;50.492;12.134;2023-04-08T13:22:15;2.97;;;2.77;;
20159;SDS011;50187;50.492;12.134;2023-04-08T13:25:00;3.23;;;2.93;;
20159;SDS011;50187;50.492;12.134;2023-04-08T13:27:47;2.97;;;2.77;;
20159;SDS011;50187;50.492;12.134;2023-04-08T13:30:32;2.90;;;2.67;;
20159;SDS011;50187;50.492;12.134;2023-04-08T13:33:20;4.03;;;3.10;;
20159;SDS011;50187;50.492;12.134;2023-04-08T13:36:06;2.77;;;2.57;;
20159;SDS011;50187;50.492;12.134;2023-04-08T13:38:52;2.60;;;2.40;;
20159;SDS011;50187;50.492;12.134;2023-04-08T13:41:38;2.63;;;2.43;;
20159;SDS011;50187;50.492;12.134;2023-04-08T13:44:23;2.57;;;2.37;;
20159;SDS011;50187;50.492;12.134;2023-04-08T13:47:09;2.77;;;2.57;;
20159;SDS011;50187;50.492;12.134;2023-04-08T13:49:55;2.90;;;2.60;;
20159;SDS011;50187;50.492;12.134;2023-04-08T13:52:40;2.90;;;2.63;;
20159;SDS011;50187;50.492;12.134;2023-04-08T13:55:26;2.77;;;2.57;;
20159;SDS011;50187;50.492;12.134;2023-04-08T13:58:11;2.77;;;2.57;;
20159;SDS011;50187;50.492;12.134;2023-04-08T14:01:07;2.50;;;2.40;;
20159;SDS011;50187;50.492;12.134;2023-04-08T14:03:53;2.53;;;2.33;;
20159;SDS011;50187;50.492;12.134;2023-04-08T14:06:38;2.80;;;2.60;;
20159;SDS011;50187;50.492;12.134;2023-04-08T14:09:23;2.50;;;2.40;;
20159;SDS011;50187;50.492;12.134;2023-04-08T14:12:08;2.60;;;2.40;;
20159;SDS011;50187;50.492;12.134;2023-04-08T14:14:54;2.50;;;2.30;;
20159;SDS011;50187;50.492;12.134;2023-04-08T14:17:39;2.80;;;2.30;;
20159;SDS011;50187;50.492;12.134;2023-04-08T14:20:26;2.73;;;2.53;;
20159;SDS011;50187;50.492;12.134;2023-04-08T14:23:11;2.60;;;2.50;;
20159;SDS011;50187;50.492;12.134;2023-04-08T14:25:57;2.67;;;2.47;;
20159;SDS011;50187;50.492;12.134;2023-04-08T14:28:45;2.50;;;2.30;;
20159;SDS011;50187;50.492;12.134;2023-04-08T14:31:31;2.30;;;2.20;;
20159;SDS011;50187;50.492;12.134;2023-04-08T14:34:17;2.80;;;2.60;;
20159;SDS011;50187;50.492;12.134;2023-04-08T14:37:03;2.80;;;2.50;;
20159;SDS011;50187;50.492;12.134;2023-04-08T14:39:48;2.70;;;2.50;;
20159;SDS011;50187;50.492;12.134;2023-04-08T14:42:34;2.20;;;2.10;;
20159;SDS011;50187;50.492;12.134;2023-04-08T14:45:19;2.37;;;2.17;;
20159;SDS011;50187;50.492;12.134;2023-04-08T14:48:04;2.40;;;2.30;;
20159;SDS011;50187;50.492;12.134;2023-04-08T14:50:50;2.60;;;2.47;;
20159;SDS011;50187;50.492;12.134;2023-04-08T14:53:36;2.33;;;2.20;;
20159;SDS011;50187;50.492;12.134;2023-04-08T14:56:21;2.70;;;2.50;;
20159;SDS011;50187;50.492;12.134;2023-04-08T14:59:06;2.13;;;2.03;;
20159;SDS011;50187;50.492;12.134;2023-04-08T15:01:51;2.37;;;2.27;;
20159;SDS011;50187;50.492;12.134;2023-04-08T15:04:36;2.80;;;2.60;;
20159;SDS011;50187;50.492;12.134;2023-04-08T15:07:21;2.50;;;2.30;;
20159;SDS011;50187;50.492;12.134;2023-04-08T15:10:08;2.43;;;2.33;;
20159;SDS011;50187;50.492;12.134;2023-04-08T15:12:53;3.10;;;2.90;;
20159;SDS011;50187;50.492;12.134;2023-04-08T15:15:39;2.87;;;2.60;;
20159;SDS011;50187;50.492;12.134;2023-04-08T15:18:24;2.27;;;2.17;;
20159;SDS011;50187;50.492;12.134;2023-04-08T15:21:09;2.93;;;2.20;;
20159;SDS011;50187;50.492;12.134;2023-04-08T15:23:55;2.20;;;2.10;;
20159;SDS011;50187;50.492;12.134;2023-04-08T15:26:39;2.60;;;2.40;;
20159;SDS011;50187;50.492;12.134;2023-04-08T15:29:25;2.60;;;2.40;;
20159;SDS011;50187;50.492;12.134;2023-04-08T15:32:10;2.33;;;2.23;;
20159;SDS011;50187;50.492;12.134;2023-04-08T15:34:55;2.50;;;2.30;;
20159;SDS011;50187;50.492;12.134;2023-04-08T15:37:40;2.83;;;2.50;;
20159;SDS011;50187;50.492;12.134;2023-04-08T15:40:25;2.53;;;2.33;;
20159;SDS011;50187;50.492;12.134;2023-04-08T15:43:10;2.70;;;2.50;;
20159;SDS011;50187;50.492;12.134;2023-04-08T15:45:56;2.53;;;2.33;;
20159;SDS011;50187;50.492;12.134;2023-04-08T15:48:41;2.30;;;2.13;;
20159;SDS011;50187;50.492;12.134;2023-04-08T15:51:26;2.57;;;2.37;;
20159;SDS011;50187;50.492;12.134;2023-04-08T15:54:12;2.13;;;2.03;;
20159;SDS011;50187;50.492;12.134;2023-04-08T15:56:57;2.17;;;2.07;;
20159;SDS011;50187;50.492;12.134;2023-04-08T15:59:42;2.70;;;2.50;;
20159;SDS011;50187;50.492;12.134;2023-04-08T16:02:28;2.67;;;2.50;;
20159;SDS011;50187;50.492;12.134;2023-04-08T16:05:14;2.60;;;2.40;;
20159;SDS011;50187;50.492;12.134;2023-04-08T16:08:00;2.60;;;2.40;;
20159;SDS011;50187;50.492;12.134;2023-04-08T16:10:45;2.33;;;2.23;;
20159;SDS011;50187;50.492;12.134;2023-04-08T16:13:31;2.63;;;2.43;;
20159;SDS011;50187;50.492;12.134;2023-04-08T16:16:16;2.57;;;2.40;;
20159;SDS011;50187;50.492;12.134;2023-04-08T16:19:02;2.50;;;2.30;;
20159;SDS011;50187;50.492;12.134;2023-04-08T16:21:47;2.13;;;2.03;;
20159;SDS011;50187;50.492;12.134;2023-04-08T16:24:34;2.47;;;2.37;;
20159;SDS011;50187;50.492;12.134;2023-04-08T16:27:20;2.60;;;2.50;;
20159;SDS011;50187;50.492;12.134;2023-04-08T16:30:06;2.50;;;2.40;;
20159;SDS011;50187;50.492;12.134;2023-04-08T16:32:51;2.57;;;2.47;;
20159;SDS011;50187;50.492;12.134;2023-04-08T16:35:37;2.20;;;2.10;;